createdAt,value
2019-05-10T00:00:06.913Z,86.26
2019-05-10T00:01:06.879Z,85.03
2019-05-10T00:02:06.900Z,86.77
2019-05-10T00:03:06.861Z,86.63
2019-05-10T00:04:06.846Z,84.72
2019-05-10T00:05:06.853Z,86.46
2019-05-10T00:06:06.825Z,86.77
2019-05-10T00:07:06.824Z,87.18
2019-05-10T00:08:06.803Z,87.18
2019-05-10T00:09:06.793Z,86.26
2019-05-10T00:10:07.414Z,86.88
2019-05-10T00:11:06.782Z,86.16
2019-05-10T00:12:06.764Z,86.57
2019-05-10T00:13:06.751Z,85.64
2019-05-10T00:14:06.740Z,85.34
2019-05-10T00:15:06.748Z,86.36
2019-05-10T00:16:06.739Z,85.55
2019-05-10T00:17:06.705Z,84.83
2019-05-10T00:18:06.697Z,85.55
2019-05-10T00:19:06.692Z,86.26
2019-05-10T00:20:06.696Z,86.36
2019-05-10T00:21:06.663Z,85.34
2019-05-10T00:22:06.654Z,86.16
2019-05-10T00:23:06.640Z,86.36
2019-05-10T00:24:06.699Z,86.46
2019-05-10T00:25:06.653Z,85.64
2019-05-10T00:26:06.607Z,86.36
2019-05-10T00:27:06.600Z,84.72
2019-05-10T00:28:06.590Z,86.26
2019-05-10T00:29:06.578Z,87.08
2019-05-10T00:30:06.565Z,87.49
2019-05-10T00:31:06.578Z,87.79
2019-05-10T00:32:06.548Z,86.26
2019-05-10T00:33:06.532Z,86.98
2019-05-10T00:34:06.527Z,87.49
2019-05-10T00:35:06.515Z,84.97
2019-05-10T00:36:06.542Z,86.26
2019-05-10T00:37:06.501Z,86.36
2019-05-10T00:38:06.479Z,86.20
2019-05-10T00:39:06.469Z,86.26
2019-05-10T00:40:06.469Z,86.98
2019-05-10T00:41:06.469Z,86.16
2019-05-10T00:42:06.472Z,86.16
2019-05-10T00:43:06.434Z,86.26
2019-05-10T00:44:06.421Z,86.57
2019-05-10T00:45:06.409Z,87.02
2019-05-10T00:46:06.433Z,86.16
2019-05-10T00:47:06.382Z,84.77
2019-05-10T00:48:06.371Z,85.03
2019-05-10T00:49:06.361Z,85.24
2019-05-10T00:50:06.350Z,86.16
2019-05-10T00:51:06.338Z,85.07
2019-05-10T00:52:06.349Z,86.10
2019-05-10T00:53:06.317Z,87.18
2019-05-10T00:54:06.323Z,86.57
2019-05-10T00:55:18.321Z,87.22
2019-05-10T00:56:07.287Z,86.57
2019-05-10T00:57:06.298Z,86.67
2019-05-10T00:58:06.267Z,86.61
2019-05-10T00:59:06.252Z,85.58
2019-05-10T01:00:06.250Z,84.72
2019-05-10T01:01:06.230Z,86.36
2019-05-10T01:02:06.237Z,86.16
2019-05-10T01:03:06.215Z,86.40
2019-05-10T01:04:06.202Z,86.71
2019-05-10T01:05:06.204Z,86.61
2019-05-10T01:06:06.178Z,86.61
2019-05-10T01:07:06.198Z,86.40
2019-05-10T01:08:06.161Z,86.61
2019-05-10T01:09:06.155Z,87.22
2019-05-10T01:10:06.137Z,86.81
2019-05-10T01:11:06.124Z,86.61
2019-05-10T01:12:06.143Z,86.81
2019-05-10T01:13:06.106Z,87.53
2019-05-10T01:14:06.103Z,86.51
2019-05-10T01:15:06.086Z,88.14
2019-05-10T01:16:06.078Z,87.32
2019-05-10T01:17:06.059Z,87.02
2019-05-10T01:18:06.083Z,87.43
2019-05-10T01:19:06.037Z,86.91
2019-05-10T01:20:06.029Z,87.43
2019-05-10T01:21:06.017Z,87.53
2019-05-10T01:22:06.005Z,86.61
2019-05-10T01:23:06.023Z,86.61
2019-05-10T01:24:05.985Z,87.12
2019-05-10T01:25:05.998Z,87.26
2019-05-10T01:26:05.964Z,87.02
2019-05-10T01:27:05.963Z,86.91
2019-05-10T01:28:06.011Z,86.30
2019-05-10T01:29:05.930Z,84.87
2019-05-10T01:30:05.927Z,84.87
2019-05-10T01:31:05.910Z,86.30
2019-05-10T01:32:05.905Z,84.97
2019-05-10T01:33:05.907Z,85.07
2019-05-10T01:34:05.876Z,85.58
2019-05-10T01:35:05.869Z,84.56
2019-05-10T01:36:05.867Z,85.17
2019-05-10T01:37:05.846Z,84.66
2019-05-10T01:38:05.860Z,86.40
2019-05-10T01:39:05.825Z,85.28
2019-05-10T01:40:05.814Z,86.20
2019-05-10T01:41:05.802Z,84.46
2019-05-10T01:42:05.793Z,84.56
2019-05-10T01:43:05.804Z,84.56
2019-05-10T01:44:05.769Z,84.56
2019-05-10T01:45:05.763Z,84.66
2019-05-10T01:46:05.744Z,85.17
2019-05-10T01:47:05.740Z,84.66
2019-05-10T01:48:05.725Z,84.97
2019-05-10T01:49:05.741Z,85.17
2019-05-10T01:50:05.712Z,84.56
2019-05-10T01:51:05.693Z,84.56
2019-05-10T01:52:05.686Z,83.84
2019-05-10T01:53:05.671Z,84.56
2019-05-10T01:54:05.691Z,84.36
2019-05-10T01:55:05.654Z,84.56
2019-05-10T01:56:05.638Z,84.66
2019-05-10T01:57:05.636Z,83.64
2019-05-10T01:58:05.619Z,84.46
2019-05-10T01:59:05.647Z,84.36
2019-05-10T02:00:05.593Z,84.25
2019-05-10T02:01:05.584Z,84.56
2019-05-10T02:02:05.573Z,84.25
2019-05-10T02:03:05.570Z,84.15
2019-05-10T02:04:05.573Z,83.44
2019-05-10T02:05:05.541Z,84.66
2019-05-10T02:06:05.528Z,84.56
2019-05-10T02:07:05.523Z,84.87
2019-05-10T02:08:05.508Z,84.19
2019-05-10T02:09:05.520Z,84.56
2019-05-10T02:10:05.493Z,85.01
2019-05-10T02:11:05.474Z,84.60
2019-05-10T02:12:05.463Z,85.01
2019-05-10T02:13:05.452Z,84.70
2019-05-10T02:14:05.443Z,84.70
2019-05-10T02:15:05.454Z,84.80
2019-05-10T02:16:05.430Z,84.29
2019-05-10T02:17:05.411Z,84.91
2019-05-10T02:18:05.476Z,84.70
2019-05-10T02:19:05.388Z,84.91
2019-05-10T02:20:05.398Z,84.80
2019-05-10T02:21:05.366Z,84.19
2019-05-10T02:22:05.356Z,83.47
2019-05-10T02:23:05.344Z,84.39
2019-05-10T02:24:05.365Z,84.39
2019-05-10T02:25:05.331Z,84.39
2019-05-10T02:26:09.358Z,84.39
2019-05-10T02:27:05.303Z,85.11
2019-05-10T02:28:05.290Z,84.80
2019-05-10T02:29:05.280Z,84.60
2019-05-10T02:30:05.305Z,83.58
2019-05-10T02:31:05.266Z,84.50
2019-05-10T02:32:05.247Z,84.39
2019-05-10T02:33:05.242Z,84.91
2019-05-10T02:34:05.237Z,84.91
2019-05-10T02:35:05.237Z,84.29
2019-05-10T02:36:05.208Z,84.64
2019-05-10T02:37:05.197Z,84.53
2019-05-10T02:38:05.183Z,84.50
2019-05-10T02:39:05.174Z,84.33
2019-05-10T02:40:05.191Z,84.64
2019-05-10T02:41:05.150Z,84.84
2019-05-10T02:42:05.145Z,84.70
2019-05-10T02:43:05.133Z,84.64
2019-05-10T02:44:05.121Z,84.44
2019-05-10T02:45:05.135Z,84.39
2019-05-10T02:46:05.096Z,84.44
2019-05-10T02:47:05.091Z,84.74
2019-05-10T02:48:05.078Z,84.39
2019-05-10T02:49:05.065Z,84.74
2019-05-10T02:50:05.074Z,84.70
2019-05-10T02:51:05.065Z,84.84
2019-05-10T02:52:05.034Z,84.44
2019-05-10T02:53:05.022Z,84.50
2019-05-10T02:54:05.010Z,84.53
2019-05-10T02:55:05.020Z,84.95
2019-05-10T02:56:04.997Z,84.84
2019-05-10T02:57:04.983Z,84.44
2019-05-10T02:58:04.968Z,84.64
2019-05-10T02:59:04.955Z,84.84
2019-05-10T03:00:04.971Z,84.03
2019-05-10T03:01:04.990Z,84.95
2019-05-10T03:02:04.925Z,84.53
2019-05-10T03:03:04.912Z,83.82
2019-05-10T03:04:04.907Z,84.95
2019-05-10T03:05:04.910Z,84.33
2019-05-10T03:06:04.881Z,84.53
2019-05-10T03:07:04.869Z,84.80
2019-05-10T03:08:04.860Z,85.46
2019-05-10T03:09:04.848Z,84.95
2019-05-10T03:10:04.866Z,84.95
2019-05-10T03:11:04.832Z,85.46
2019-05-10T03:12:04.817Z,86.58
2019-05-10T03:13:04.811Z,86.48
2019-05-10T03:14:04.799Z,86.69
2019-05-10T03:15:04.805Z,87.30
2019-05-10T03:16:04.773Z,88.02
2019-05-10T03:17:04.763Z,88.29
2019-05-10T03:18:04.753Z,89.15
2019-05-10T03:19:04.742Z,88.94
2019-05-10T03:20:04.748Z,89.25
2019-05-10T03:21:04.721Z,89.56
2019-05-10T03:22:04.712Z,89.45
2019-05-10T03:23:04.721Z,88.84
2019-05-10T03:24:04.691Z,89.60
2019-05-10T03:25:04.702Z,89.97
2019-05-10T03:26:04.670Z,89.39
2019-05-10T03:27:04.671Z,90.01
2019-05-10T03:28:04.645Z,90.58
2019-05-10T03:29:04.641Z,89.90
2019-05-10T03:30:04.623Z,90.28
2019-05-10T03:31:04.649Z,90.01
2019-05-10T03:32:04.608Z,90.32
2019-05-10T03:33:04.592Z,90.93
2019-05-10T03:34:04.591Z,90.17
2019-05-10T03:35:04.579Z,90.01
2019-05-10T03:36:04.592Z,91.03
2019-05-10T03:37:04.550Z,90.01
2019-05-10T03:38:04.535Z,90.11
2019-05-10T03:39:04.526Z,91.65
2019-05-10T03:40:04.514Z,91.55
2019-05-10T03:41:04.531Z,91.24
2019-05-10T03:42:04.494Z,90.22
2019-05-10T03:43:04.484Z,90.62
2019-05-10T03:44:04.472Z,90.11
2019-05-10T03:45:04.472Z,91.20
2019-05-10T03:46:04.472Z,90.62
2019-05-10T03:47:04.439Z,89.81
2019-05-10T03:48:04.432Z,89.70
2019-05-10T03:49:04.419Z,89.76
2019-05-10T03:50:04.412Z,90.11
2019-05-10T03:51:04.419Z,91.44
2019-05-10T03:52:04.390Z,90.52
2019-05-10T03:53:04.377Z,91.14
2019-05-10T03:54:04.367Z,91.40
2019-05-10T03:55:04.355Z,90.32
2019-05-10T03:56:04.360Z,90.83
2019-05-10T03:57:12.839Z,91.24
2019-05-10T03:58:05.319Z,91.24
2019-05-10T03:59:04.313Z,92.06
2019-05-10T04:00:04.321Z,92.16
2019-05-10T04:01:04.289Z,91.03
2019-05-10T04:02:04.286Z,91.44
2019-05-10T04:03:04.273Z,92.06
2019-05-10T04:04:04.317Z,91.44
2019-05-10T04:05:04.272Z,92.36
2019-05-10T04:06:04.251Z,92.88
2019-05-10T04:07:04.243Z,92.78
2019-05-10T04:08:04.226Z,92.16
2019-05-10T04:09:04.202Z,92.98
2019-05-10T04:10:04.198Z,91.96
2019-05-10T04:11:04.281Z,92.27
2019-05-10T04:12:04.189Z,91.65
2019-05-10T04:13:04.160Z,91.55
2019-05-10T04:14:04.193Z,93.08
2019-05-10T04:15:04.147Z,93.08
2019-05-10T04:16:04.150Z,93.08
2019-05-10T04:17:04.129Z,91.44
2019-05-10T04:18:04.108Z,92.78
2019-05-10T04:19:04.097Z,92.57
2019-05-10T04:20:04.086Z,91.44
2019-05-10T04:21:04.097Z,91.03
2019-05-10T04:22:04.064Z,92.68
2019-05-10T04:23:04.082Z,92.06
2019-05-10T04:24:04.160Z,92.98
2019-05-10T04:25:04.047Z,92.78
2019-05-10T04:26:04.042Z,92.36
2019-05-10T04:27:04.013Z,92.16
2019-05-10T04:28:03.999Z,92.88
2019-05-10T04:29:04.052Z,92.27
2019-05-10T04:30:03.988Z,93.08
2019-05-10T04:31:04.006Z,93.13
2019-05-10T04:32:03.961Z,93.13
2019-05-10T04:33:03.960Z,93.02
2019-05-10T04:34:04.698Z,93.13
2019-05-10T04:35:03.927Z,93.64
2019-05-10T04:36:03.934Z,93.13
2019-05-10T04:37:03.901Z,93.54
2019-05-10T04:38:03.890Z,92.93
2019-05-10T04:39:03.898Z,93.23
2019-05-10T04:40:03.881Z,93.23
2019-05-10T04:41:03.881Z,93.23
2019-05-10T04:42:03.846Z,93.74
2019-05-10T04:43:03.836Z,93.33
2019-05-10T04:44:03.837Z,92.82
2019-05-10T04:45:03.819Z,93.13
2019-05-10T04:46:03.808Z,93.74
2019-05-10T04:47:03.817Z,92.72
2019-05-10T04:48:03.792Z,93.13
2019-05-10T04:49:03.777Z,93.13
2019-05-10T04:50:03.767Z,91.28
2019-05-10T04:51:03.773Z,92.51
2019-05-10T04:52:03.738Z,92.72
2019-05-10T04:53:03.738Z,92.93
2019-05-10T04:54:03.718Z,92.72
2019-05-10T04:55:03.705Z,93.19
2019-05-10T04:56:03.752Z,93.44
2019-05-10T04:57:03.699Z,93.13
2019-05-10T04:58:03.674Z,92.93
2019-05-10T04:59:03.667Z,92.57
2019-05-10T05:00:03.651Z,93.13
2019-05-10T05:01:03.645Z,93.39
2019-05-10T05:02:03.700Z,94.36
2019-05-10T05:03:03.623Z,93.39
2019-05-10T05:04:03.611Z,93.74
2019-05-10T05:05:03.603Z,94.32
2019-05-10T05:06:03.589Z,93.39
2019-05-10T05:07:03.644Z,94.26
2019-05-10T05:08:06.266Z,94.32
2019-05-10T05:09:03.561Z,94.73
2019-05-10T05:10:03.549Z,94.11
2019-05-10T05:11:03.533Z,94.73
2019-05-10T05:12:03.545Z,93.64
2019-05-10T05:13:03.511Z,94.52
2019-05-10T05:14:03.504Z,95.03
2019-05-10T05:15:03.498Z,94.42
2019-05-10T05:16:03.482Z,94.52
2019-05-10T05:17:03.470Z,94.32
2019-05-10T05:18:03.480Z,93.29
2019-05-10T05:19:03.446Z,92.98
2019-05-10T05:20:03.446Z,92.98
2019-05-10T05:21:03.425Z,93.29
2019-05-10T05:22:03.417Z,94.32
2019-05-10T05:23:03.421Z,94.58
2019-05-10T05:24:03.394Z,94.83
2019-05-10T05:25:03.808Z,93.70
2019-05-10T05:26:03.370Z,93.08
2019-05-10T05:27:03.360Z,93.96
2019-05-10T05:28:07.905Z,93.35
2019-05-10T05:29:04.339Z,94.42
2019-05-10T05:30:03.336Z,94.37
2019-05-10T05:31:03.342Z,93.04
2019-05-10T05:32:03.693Z,94.01
2019-05-10T05:33:03.314Z,94.21
2019-05-10T05:34:04.791Z,94.52
2019-05-10T05:35:03.274Z,94.37
2019-05-10T05:36:03.264Z,94.37
2019-05-10T05:37:03.258Z,93.25
2019-05-10T05:38:03.261Z,93.25
2019-05-10T05:39:03.244Z,94.27
2019-05-10T05:40:03.221Z,94.58
2019-05-10T05:41:03.213Z,94.83
2019-05-10T05:42:03.200Z,94.17
2019-05-10T05:43:08.311Z,94.52
2019-05-10T05:44:04.182Z,94.27
2019-05-10T05:45:03.170Z,94.83
2019-05-10T05:46:03.159Z,94.73
2019-05-10T05:47:04.776Z,94.52
2019-05-10T05:48:03.156Z,94.73
2019-05-10T05:49:03.129Z,94.83
2019-05-10T05:50:03.189Z,94.73
2019-05-10T05:51:03.110Z,93.86
2019-05-10T05:52:03.098Z,93.19
2019-05-10T05:53:03.101Z,93.08
2019-05-10T05:54:04.206Z,94.01
2019-05-10T05:55:03.066Z,92.94
2019-05-10T05:56:11.997Z,93.19
2019-05-10T05:57:04.037Z,94.37
2019-05-10T05:58:04.870Z,94.78
2019-05-10T05:59:03.017Z,94.21
2019-05-10T06:00:04.162Z,94.27
2019-05-10T06:01:02.996Z,94.58
2019-05-10T06:02:07.455Z,94.58
2019-05-10T06:03:04.013Z,94.58
2019-05-10T06:04:06.490Z,94.42
2019-05-10T06:05:03.959Z,94.93
2019-05-10T06:06:15.340Z,94.89
2019-05-10T06:07:03.939Z,94.62
2019-05-10T06:08:02.978Z,95.29
2019-05-10T06:09:02.930Z,95.20
2019-05-10T06:10:02.900Z,94.68
2019-05-10T06:11:02.885Z,94.73
2019-05-10T06:12:07.603Z,94.58
2019-05-10T06:13:03.894Z,94.27
2019-05-10T06:14:10.390Z,94.17
2019-05-10T06:15:03.842Z,94.78
2019-05-10T06:16:06.424Z,94.78
2019-05-10T06:17:03.820Z,95.20
2019-05-10T06:18:03.723Z,93.55
2019-05-10T06:19:03.800Z,94.73
2019-05-10T06:20:05.991Z,94.83
2019-05-10T06:21:02.777Z,94.99
2019-05-10T06:22:04.609Z,94.93
2019-05-10T06:23:07.078Z,95.65
2019-05-10T06:24:07.465Z,95.65
2019-05-10T06:25:03.765Z,96.32
2019-05-10T06:26:02.724Z,96.42
2019-05-10T06:27:03.353Z,95.91
2019-05-10T06:28:02.702Z,95.81
2019-05-10T06:29:04.737Z,94.27
2019-05-10T06:30:02.681Z,94.78
2019-05-10T06:31:02.670Z,95.29
2019-05-10T06:32:02.663Z,94.58
2019-05-10T06:33:11.871Z,94.58
2019-05-10T06:34:03.669Z,94.27
2019-05-10T06:35:02.637Z,94.27
2019-05-10T06:36:02.616Z,94.99
2019-05-10T06:37:02.616Z,95.20
2019-05-10T06:38:02.597Z,94.68
2019-05-10T06:39:02.602Z,94.89
2019-05-10T06:40:02.576Z,94.78
2019-05-10T06:41:02.565Z,94.68
2019-05-10T06:42:02.552Z,95.50
2019-05-10T06:43:06.943Z,94.89
2019-05-10T06:44:03.548Z,94.17
2019-05-10T06:45:05.002Z,93.55
2019-05-10T06:46:03.511Z,93.66
2019-05-10T06:47:08.177Z,94.27
2019-05-10T06:48:03.486Z,94.68
2019-05-10T06:49:08.456Z,95.29
2019-05-10T06:50:03.464Z,94.89
2019-05-10T06:51:08.797Z,94.78
2019-05-10T06:52:03.447Z,95.20
2019-05-10T06:53:07.340Z,95.29
2019-05-10T06:54:03.446Z,95.61
2019-05-10T06:55:02.419Z,95.61
2019-05-10T06:56:02.400Z,95.50
2019-05-10T06:57:02.393Z,96.42
2019-05-10T06:58:02.381Z,95.66
2019-05-10T06:59:12.995Z,95.29
2019-05-10T07:00:06.473Z,96.01
2019-05-10T07:01:02.379Z,96.22
2019-05-10T07:02:02.338Z,96.48
2019-05-10T07:03:02.328Z,96.01
2019-05-10T07:04:02.338Z,96.28
2019-05-10T07:05:02.305Z,96.32
2019-05-10T07:06:02.295Z,96.38
2019-05-10T07:07:02.282Z,96.48
2019-05-10T07:08:13.907Z,96.38
2019-05-10T07:09:03.277Z,96.58
2019-05-10T07:10:12.389Z,96.07
2019-05-10T07:12:15.410Z,95.56
2019-05-10T07:13:13.067Z,94.74
2019-05-10T07:14:13.019Z,94.54
2019-05-10T07:15:12.993Z,94.54
2019-05-10T07:16:15.042Z,94.12
2019-05-10T07:17:13.970Z,94.12
2019-05-10T07:18:16.832Z,93.92
2019-05-10T07:19:13.970Z,94.43
2019-05-10T07:20:12.934Z,94.43
2019-05-10T07:21:12.956Z,94.54
2019-05-10T07:22:12.917Z,95.36
2019-05-10T07:23:12.907Z,95.56
2019-05-10T07:24:18.341Z,95.36
2019-05-10T07:25:13.887Z,94.95
2019-05-10T07:26:17.383Z,94.64
2019-05-10T07:27:13.858Z,94.33
2019-05-10T07:28:15.908Z,94.23
2019-05-10T07:29:28.730Z,94.23
2019-05-10T07:30:13.851Z,94.02
2019-05-10T07:31:12.866Z,93.51
2019-05-10T07:32:16.345Z,94.43
2019-05-10T07:33:13.830Z,95.25
2019-05-10T07:34:15.569Z,94.95
2019-05-10T07:35:12.823Z,95.15
2019-05-10T07:36:15.120Z,95.05
2019-05-10T07:37:12.766Z,95.15
2019-05-10T07:38:12.755Z,94.64
2019-05-10T07:39:12.733Z,95.66
2019-05-10T07:40:12.790Z,95.15
2019-05-10T07:41:12.716Z,95.46
2019-05-10T07:42:12.707Z,95.25
2019-05-10T07:43:22.391Z,95.56
2019-05-10T07:44:13.683Z,96.07
2019-05-10T07:45:12.716Z,95.25
2019-05-10T07:46:12.670Z,95.76
2019-05-10T07:47:12.653Z,96.07
2019-05-10T07:48:12.682Z,96.48
2019-05-10T07:49:12.632Z,95.25
2019-05-10T07:50:12.640Z,95.46
2019-05-10T07:51:12.610Z,96.07
2019-05-10T07:52:12.604Z,96.28
2019-05-10T07:53:16.439Z,96.58
2019-05-10T07:54:13.643Z,96.28
2019-05-10T07:55:18.505Z,96.07
2019-05-10T07:56:13.599Z,96.17
2019-05-10T07:57:12.543Z,96.48
2019-05-10T07:58:12.534Z,96.69
2019-05-10T07:59:16.291Z,96.17
2019-05-10T08:00:13.554Z,96.38
2019-05-10T08:01:12.507Z,96.07
2019-05-10T08:02:14.546Z,96.07
2019-05-10T08:03:17.505Z,96.07
2019-05-10T08:04:13.492Z,96.17
2019-05-10T08:05:13.796Z,96.58
2019-05-10T08:06:15.317Z,96.48
2019-05-10T08:07:12.436Z,96.79
2019-05-10T08:08:12.430Z,96.58
2019-05-10T08:09:12.423Z,96.89
2019-05-10T08:10:12.487Z,96.99
2019-05-10T08:11:14.244Z,96.99
2019-05-10T08:12:12.889Z,96.99
2019-05-10T08:13:15.434Z,96.28
2019-05-10T08:14:13.397Z,96.79
2019-05-10T08:15:12.356Z,97.30
2019-05-10T08:16:19.620Z,97.30
2019-05-10T08:17:13.340Z,96.79
2019-05-10T08:18:15.285Z,96.38
2019-05-10T08:19:13.309Z,95.97
2019-05-10T08:20:20.324Z,96.58
2019-05-10T08:21:21.734Z,96.38
2019-05-10T08:22:14.921Z,97.09
2019-05-10T08:23:13.069Z,97.36
2019-05-10T08:24:14.414Z,97.46
2019-05-10T08:25:15.127Z,98.18
2019-05-10T08:26:19.773Z,97.66
2019-05-10T08:27:14.891Z,97.25
2019-05-10T08:28:12.759Z,97.46
2019-05-10T08:29:13.575Z,97.56
2019-05-10T08:30:28.008Z,97.46
2019-05-10T08:31:13.237Z,96.84
2019-05-10T08:32:12.819Z,97.46
2019-05-10T08:33:14.394Z,97.36
2019-05-10T08:34:12.159Z,97.46
2019-05-10T08:35:17.149Z,97.46
2019-05-10T08:36:13.130Z,97.36
2019-05-10T08:37:12.808Z,96.64
2019-05-10T08:38:12.941Z,96.33
2019-05-10T08:39:14.046Z,95.51
2019-05-10T08:40:12.772Z,94.70
2019-05-10T08:41:14.845Z,95.51
2019-05-10T08:42:30.326Z,96.23
2019-05-10T08:43:16.682Z,96.33
2019-05-10T08:44:19.324Z,96.03
2019-05-10T08:45:13.158Z,95.37
2019-05-10T08:46:12.234Z,95.92
2019-05-10T08:47:16.135Z,96.80
2019-05-10T08:48:13.001Z,96.13
2019-05-10T08:49:13.008Z,95.51
2019-05-10T08:50:29.157Z,96.29
2019-05-10T08:51:12.978Z,95.98
2019-05-10T08:52:12.287Z,96.70
2019-05-10T08:53:16.342Z,96.39
2019-05-10T08:54:12.215Z,96.08
2019-05-10T08:55:12.516Z,96.08
2019-05-10T08:56:15.927Z,95.98
2019-05-10T08:57:18.537Z,94.65
2019-05-10T08:58:12.898Z,94.85
2019-05-10T08:59:15.866Z,95.06
2019-05-10T09:00:13.221Z,95.26
2019-05-10T09:01:24.018Z,95.22
2019-05-10T09:02:14.669Z,94.85
2019-05-10T09:03:18.396Z,94.40
2019-05-10T09:04:13.750Z,94.40
2019-05-10T09:05:12.597Z,94.20
2019-05-10T09:06:16.692Z,93.48
2019-05-10T09:07:12.836Z,92.91
2019-05-10T09:08:19.554Z,92.10
2019-05-10T09:09:12.781Z,92.15
2019-05-10T09:10:12.885Z,93.48
2019-05-10T09:11:11.775Z,93.99
2019-05-10T09:12:12.453Z,93.99
2019-05-10T09:13:12.846Z,94.60
2019-05-10T09:14:19.822Z,93.99
2019-05-10T09:15:13.445Z,92.77
2019-05-10T09:16:13.649Z,92.97
2019-05-10T09:17:17.174Z,93.01
2019-05-10T09:18:12.955Z,92.60
2019-05-10T09:19:12.461Z,93.89
2019-05-10T09:20:20.478Z,93.22
2019-05-10T09:21:14.338Z,94.20
2019-05-10T09:22:12.454Z,94.24
2019-05-10T09:23:17.875Z,94.55
2019-05-10T09:24:12.881Z,94.55
2019-05-10T09:25:12.891Z,95.17
2019-05-10T09:26:19.203Z,93.43
2019-05-10T09:27:12.883Z,94.65
2019-05-10T09:28:16.658Z,94.34
2019-05-10T09:29:12.586Z,94.65
2019-05-10T09:30:14.045Z,94.55
2019-05-10T09:31:20.783Z,94.14
2019-05-10T09:32:12.679Z,94.75
2019-05-10T09:33:14.347Z,94.45
2019-05-10T09:34:12.236Z,93.84
2019-05-10T09:35:12.714Z,93.01
2019-05-10T09:36:12.462Z,93.01
2019-05-10T09:37:16.117Z,92.30
2019-05-10T09:38:12.737Z,93.84
2019-05-10T09:39:17.702Z,94.24
2019-05-10T09:40:13.157Z,94.45
2019-05-10T09:41:11.962Z,94.14
2019-05-10T09:42:24.871Z,94.75
2019-05-10T09:43:14.802Z,94.96
2019-05-10T09:44:13.039Z,94.75
2019-05-10T09:45:12.804Z,95.47
2019-05-10T09:46:13.893Z,95.17
2019-05-10T09:47:12.053Z,95.47
2019-05-10T09:48:12.109Z,95.63
2019-05-10T09:49:15.664Z,95.88
2019-05-10T09:50:12.778Z,95.67
2019-05-10T09:51:13.757Z,95.17
2019-05-10T09:52:20.262Z,95.67
2019-05-10T09:53:13.621Z,96.49
2019-05-10T09:54:11.312Z,95.37
2019-05-10T09:55:18.946Z,95.73
2019-05-10T09:56:11.325Z,95.63
2019-05-10T09:57:11.300Z,95.94
2019-05-10T09:58:11.266Z,94.51
2019-05-10T09:59:11.262Z,94.81
2019-05-10T10:00:18.941Z,94.30
2019-05-10T10:01:17.978Z,94.60
2019-05-10T10:02:16.497Z,95.02
2019-05-10T10:03:13.008Z,94.92
2019-05-10T10:04:11.195Z,94.60
2019-05-10T10:05:11.188Z,96.30
2019-05-10T10:06:11.569Z,95.73
2019-05-10T10:07:11.182Z,95.94
2019-05-10T10:08:11.298Z,96.00
2019-05-10T10:09:11.356Z,96.10
2019-05-10T10:10:12.852Z,95.79
2019-05-10T10:11:15.652Z,95.38
2019-05-10T10:12:12.133Z,95.18
2019-05-10T10:13:14.094Z,94.77
2019-05-10T10:14:11.115Z,94.77
2019-05-10T10:15:18.647Z,94.77
2019-05-10T10:16:14.797Z,95.85
2019-05-10T10:17:11.059Z,96.15
2019-05-10T10:18:12.481Z,95.85
2019-05-10T10:19:12.041Z,94.98
2019-05-10T10:20:11.027Z,94.89
2019-05-10T10:21:13.194Z,94.53
2019-05-10T10:22:13.144Z,93.35
2019-05-10T10:23:11.025Z,92.80
2019-05-10T10:24:15.496Z,94.23
2019-05-10T10:25:11.967Z,93.82
2019-05-10T10:26:12.577Z,92.19
2019-05-10T10:27:11.950Z,92.90
2019-05-10T10:28:16.851Z,94.29
2019-05-10T10:29:11.936Z,94.49
2019-05-10T10:30:14.973Z,92.35
2019-05-10T10:31:25.992Z,92.35
2019-05-10T10:32:11.900Z,90.41
2019-05-10T10:33:13.711Z,90.31
2019-05-10T10:34:11.902Z,91.02
2019-05-10T10:35:13.197Z,91.02
2019-05-10T10:36:11.861Z,91.02
2019-05-10T10:37:14.746Z,89.55
2019-05-10T10:38:11.834Z,90.31
2019-05-10T10:39:10.862Z,89.69
2019-05-10T10:40:10.816Z,89.79
2019-05-10T10:41:10.805Z,88.57
2019-05-10T10:42:13.053Z,89.28
2019-05-10T10:43:10.781Z,88.47
2019-05-10T10:44:10.854Z,89.02
2019-05-10T10:45:10.765Z,87.55
2019-05-10T10:46:12.395Z,87.85
2019-05-10T10:47:10.737Z,89.08
2019-05-10T10:48:12.767Z,88.67
2019-05-10T10:49:14.213Z,87.79
2019-05-10T10:50:13.486Z,88.71
2019-05-10T10:51:10.703Z,88.92
2019-05-10T10:52:13.282Z,88.82
2019-05-10T10:53:10.679Z,88.82
2019-05-10T10:54:10.691Z,88.92
2019-05-10T10:55:11.922Z,88.82
2019-05-10T10:56:10.649Z,89.32
2019-05-10T10:57:10.627Z,89.23
2019-05-10T10:58:10.621Z,90.04
2019-05-10T10:59:10.640Z,88.92
2019-05-10T11:00:10.610Z,89.84
2019-05-10T11:01:19.909Z,90.35
2019-05-10T11:02:33.650Z,90.66
2019-05-10T11:03:11.566Z,88.41
2019-05-10T11:04:10.560Z,90.25
2019-05-10T11:05:10.577Z,89.53
2019-05-10T11:06:10.536Z,89.63
2019-05-10T11:07:11.256Z,90.31
2019-05-10T11:08:11.151Z,90.92
2019-05-10T11:09:10.504Z,90.14
2019-05-10T11:10:17.868Z,88.78
2019-05-10T11:11:11.522Z,88.57
2019-05-10T11:12:14.789Z,85.21
2019-05-10T11:13:18.757Z,87.59
2019-05-10T11:14:11.447Z,89.18
2019-05-10T11:15:11.442Z,89.28
2019-05-10T11:16:15.466Z,88.31
2019-05-10T11:17:11.418Z,87.85
2019-05-10T11:18:10.412Z,87.45
2019-05-10T11:19:15.281Z,87.70
2019-05-10T11:20:11.738Z,88.47
2019-05-10T11:21:11.306Z,89.08
2019-05-10T11:22:10.957Z,89.90
2019-05-10T11:23:10.813Z,89.28
2019-05-10T11:24:18.168Z,89.18
2019-05-10T11:25:12.895Z,89.18
2019-05-10T11:26:10.954Z,90.00
2019-05-10T11:27:15.176Z,90.10
2019-05-10T11:28:12.028Z,87.96
2019-05-10T11:29:13.961Z,88.98
2019-05-10T11:30:12.165Z,89.18
2019-05-10T11:31:11.338Z,89.69
2019-05-10T11:32:15.857Z,89.49
2019-05-10T11:33:25.802Z,88.78
2019-05-10T11:34:11.243Z,89.25
2019-05-10T11:35:12.084Z,88.78
2019-05-10T11:36:11.557Z,88.78
2019-05-10T11:37:10.215Z,88.73
2019-05-10T11:38:17.747Z,88.57
2019-05-10T11:39:24.820Z,88.47
2019-05-10T11:40:27.751Z,88.88
2019-05-10T11:41:13.534Z,89.14
2019-05-10T11:42:11.875Z,88.73
2019-05-10T11:43:23.865Z,88.84
2019-05-10T11:44:12.042Z,89.55
2019-05-10T11:45:11.125Z,89.55
2019-05-10T11:46:11.709Z,89.25
2019-05-10T11:47:23.408Z,87.92
2019-05-10T11:48:11.105Z,87.20
2019-05-10T11:49:10.617Z,88.18
2019-05-10T11:50:10.652Z,86.65
2019-05-10T11:51:12.436Z,86.65
2019-05-10T11:52:13.223Z,86.35
2019-05-10T11:53:13.238Z,84.51
2019-05-10T11:54:11.259Z,85.84
2019-05-10T11:55:11.430Z,84.41
2019-05-10T11:56:14.040Z,83.49
2019-05-10T11:57:13.826Z,83.18
2019-05-10T11:58:12.968Z,84.51
2019-05-10T11:59:12.351Z,82.74
2019-05-10T12:00:24.460Z,83.96
2019-05-10T12:02:33.813Z,82.64
2019-05-10T12:04:28.131Z,84.06
2019-05-10T12:05:17.749Z,83.15
2019-05-10T12:06:12.126Z,83.25
2019-05-10T12:07:12.849Z,82.13
2019-05-10T12:08:12.985Z,82.13
2019-05-10T12:09:12.462Z,83.76
2019-05-10T12:10:18.387Z,85.75
2019-05-10T12:12:12.281Z,85.75
2019-05-10T12:13:18.485Z,85.00
2019-05-10T12:14:13.815Z,82.97
2019-05-10T12:15:13.530Z,84.56
2019-05-10T12:16:16.131Z,84.05
2019-05-10T12:17:14.218Z,83.84
2019-05-10T12:18:13.917Z,84.01
2019-05-10T12:19:17.056Z,79.63
2019-05-10T12:20:15.614Z,79.23
2019-05-10T12:21:11.280Z,79.94
2019-05-10T12:22:15.466Z,79.74
2019-05-10T12:23:13.233Z,76.68
2019-05-10T12:24:31.161Z,80.31
2019-05-10T12:25:32.729Z,78.17
2019-05-10T12:26:15.763Z,84.47
2019-05-10T12:26:24.688Z,84.17
2019-05-10T12:26:59.224Z,81.07
2019-05-10T12:27:22.495Z,76.21
2019-05-10T12:28:10.662Z,77.63
2019-05-10T12:29:13.772Z,79.25
2019-05-10T12:30:11.625Z,79.12
2019-05-10T12:31:15.256Z,77.59
2019-05-10T12:32:10.625Z,76.48
2019-05-10T12:33:17.689Z,77.39
2019-05-10T12:34:14.414Z,73.83
2019-05-10T12:35:11.691Z,76.34
2019-05-10T12:36:13.523Z,77.05
2019-05-10T12:37:10.654Z,77.36
2019-05-10T12:38:11.318Z,78.47
2019-05-10T12:39:11.621Z,73.66
2019-05-10T12:40:14.893Z,74.78
2019-05-10T12:41:10.533Z,74.68
2019-05-10T12:42:11.370Z,74.38
2019-05-10T12:43:10.941Z,75.59
2019-05-10T12:44:11.214Z,71.94
2019-05-10T12:45:09.481Z,70.52
2019-05-10T12:46:10.453Z,69.91
2019-05-10T12:47:11.340Z,70.01
2019-05-10T12:48:09.453Z,72.96
2019-05-10T12:49:11.811Z,73.43
2019-05-10T12:50:09.430Z,73.83
2019-05-10T12:51:20.995Z,70.59
2019-05-10T12:52:13.962Z,71.40
2019-05-10T12:54:23.811Z,74.24
2019-05-10T12:55:20.229Z,71.60